Aviation Digital Data Service (ADDS)

Output produced by TAFs form (2145 UTC 16 October 2017)
found at http://www.aviationweather.gov/adds/tafs/
 
KMDT 162054Z 1621/1718 33009KT P6SM FEW060 
     FM170000 33005KT P6SM SKC